createdAt,value
2022-12-16T00:02:38.615Z,-2.54
2022-12-16T00:07:42.252Z,-2.53
2022-12-16T00:12:47.058Z,-2.46
2022-12-16T00:17:50.183Z,-2.54
2022-12-16T00:22:55.444Z,-2.43
2022-12-16T00:28:00.619Z,-2.40
2022-12-16T00:33:04.225Z,-2.30
2022-12-16T00:38:07.725Z,-2.29
2022-12-16T00:43:12.969Z,-2.04
2022-12-16T00:48:17.332Z,-2.22
2022-12-16T00:53:21.314Z,-2.06
2022-12-16T00:58:26.090Z,-1.85
2022-12-16T01:03:29.201Z,-1.96
2022-12-16T01:08:32.539Z,-1.96
2022-12-16T01:13:37.482Z,-1.75
2022-12-16T01:18:41.000Z,-2.09
2022-12-16T01:23:44.391Z,-2.00
2022-12-16T01:28:50.682Z,-1.98
2022-12-16T01:33:54.323Z,-2.01
2022-12-16T01:38:58.338Z,-1.80
2022-12-16T01:44:17.402Z,-1.68
2022-12-16T01:49:26.108Z,-1.80
2022-12-16T01:59:57.169Z,-1.73
2022-12-16T02:05:17.915Z,-1.61
2022-12-16T02:15:53.499Z,-1.52
2022-12-16T02:21:40.274Z,-1.52
2022-12-16T02:32:33.300Z,-1.46
2022-12-16T02:37:44.195Z,-1.48
2022-12-16T02:42:54.059Z,-1.42
2022-12-16T02:48:00.178Z,-1.46
2022-12-16T02:53:05.820Z,-1.28
2022-12-16T02:58:17.833Z,-1.35
2022-12-16T03:03:30.998Z,-1.31
2022-12-16T03:08:39.310Z,-1.32
2022-12-16T03:13:46.568Z,-1.33
2022-12-16T03:24:15.779Z,-1.28
2022-12-16T03:29:25.954Z,-1.11
2022-12-16T03:40:02.783Z,-1.01
2022-12-16T03:45:09.582Z,-1.02
2022-12-16T03:50:14.466Z,-0.95
2022-12-16T03:55:17.885Z,-0.98
2022-12-16T04:00:21.643Z,-0.99
2022-12-16T04:05:26.574Z,-0.96
2022-12-16T04:10:43.880Z,-1.23
2022-12-16T04:16:13.151Z,-0.98
2022-12-16T04:21:35.337Z,-0.78
2022-12-16T04:26:52.573Z,-0.81
2022-12-16T04:31:56.315Z,-0.74
2022-12-16T04:37:20.855Z,-0.75
2022-12-16T04:48:35.403Z,-0.73
2022-12-16T04:53:57.563Z,-0.89
2022-12-16T05:04:58.761Z,-0.75
2022-12-16T05:10:21.191Z,-0.62
2022-12-16T05:15:42.082Z,-0.58
2022-12-16T05:21:02.639Z,-0.64
2022-12-16T05:26:27.116Z,-0.54
2022-12-16T05:37:25.799Z,-0.62
2022-12-16T05:42:47.828Z,-0.63
2022-12-16T05:48:08.469Z,-0.62
2022-12-16T05:53:29.524Z,-0.69
2022-12-16T05:58:51.510Z,-0.74
2022-12-16T06:04:17.226Z,-0.70
2022-12-16T06:09:38.741Z,-0.77
2022-12-16T06:15:00.914Z,-0.58
2022-12-16T06:20:21.588Z,-0.59
2022-12-16T06:25:42.508Z,-0.59
2022-12-16T06:31:04.819Z,-0.62
2022-12-16T06:36:26.304Z,-0.61
2022-12-16T06:41:47.468Z,-0.74
2022-12-16T06:47:09.838Z,-0.71
2022-12-16T06:52:30.634Z,-0.77
2022-12-16T06:57:50.694Z,-0.93
2022-12-16T07:03:12.849Z,-0.79
2022-12-16T07:08:32.874Z,-0.89
2022-12-16T07:13:53.509Z,-0.86
2022-12-16T07:19:14.999Z,-0.83
2022-12-16T07:24:35.794Z,-0.90
2022-12-16T07:29:56.534Z,-0.98
2022-12-16T07:35:18.823Z,-0.94
2022-12-16T07:40:39.739Z,-1.06
2022-12-16T07:46:03.214Z,-0.99
2022-12-16T07:51:25.487Z,-0.89
2022-12-16T07:56:46.328Z,-0.76
2022-12-16T08:02:07.147Z,-0.76
2022-12-16T08:07:29.634Z,-0.54
2022-12-16T08:12:50.212Z,-0.63
2022-12-16T08:18:11.776Z,-0.74
2022-12-16T08:23:33.449Z,-0.76
2022-12-16T08:28:54.633Z,-0.62
2022-12-16T08:34:15.254Z,-0.66
2022-12-16T08:39:37.838Z,-0.60
2022-12-16T08:44:58.451Z,-0.48
2022-12-16T08:50:19.246Z,-0.51
2022-12-16T08:55:41.487Z,-0.62
2022-12-16T09:01:07.045Z,-0.61
2022-12-16T09:06:28.822Z,-0.66
2022-12-16T09:11:50.854Z,-0.45
2022-12-16T09:17:12.383Z,-0.68
2022-12-16T09:22:33.165Z,-0.78
2022-12-16T09:27:55.205Z,-0.68
2022-12-16T09:33:16.886Z,-0.68
2022-12-16T09:38:37.713Z,-0.77
2022-12-16T09:44:19.758Z,-0.96
2022-12-16T09:49:54.665Z,-0.84
2022-12-16T09:55:16.229Z,-0.90
2022-12-16T10:00:41.554Z,-0.68
2022-12-16T10:06:12.721Z,-0.68
2022-12-16T10:11:40.357Z,-0.74
2022-12-16T10:17:10.962Z,-1.11
2022-12-16T10:22:39.691Z,-1.03
2022-12-16T10:28:04.277Z,-0.94
2022-12-16T10:33:32.637Z,-0.83
2022-12-16T10:38:59.331Z,-0.95
2022-12-16T10:44:22.775Z,-1.12
2022-12-16T10:49:47.454Z,-1.10
2022-12-16T10:55:20.894Z,-1.55
2022-12-16T11:01:00.775Z,-1.35
2022-12-16T11:06:24.050Z,-1.34
2022-12-16T11:11:47.843Z,-1.32
2022-12-16T11:17:33.376Z,-1.31
2022-12-16T11:22:55.742Z,-1.21
2022-12-16T11:28:21.967Z,-1.09
2022-12-16T11:33:46.746Z,-1.09
2022-12-16T11:39:10.939Z,-1.03
2022-12-16T11:44:37.427Z,-1.06
2022-12-16T11:49:59.634Z,-1.12
2022-12-16T11:56:03.219Z,-1.28
2022-12-16T12:01:21.384Z,-1.23
2022-12-16T12:06:51.180Z,-1.31
2022-12-16T12:12:19.242Z,-1.47
2022-12-16T12:17:47.770Z,-1.46
2022-12-16T12:23:08.356Z,-1.39
2022-12-16T12:28:40.044Z,-1.43
2022-12-16T12:34:14.943Z,-1.78
2022-12-16T12:39:41.047Z,-1.57
2022-12-16T12:45:13.612Z,-1.85
2022-12-16T12:50:40.478Z,-2.00
2022-12-16T12:56:08.786Z,-1.98
2022-12-16T13:01:32.267Z,-1.93
2022-12-16T13:06:50.929Z,-1.90
2022-12-16T13:12:40.846Z,-1.95
2022-12-16T13:18:38.655Z,-2.17
2022-12-16T13:24:00.791Z,-2.19
2022-12-16T13:29:36.544Z,-2.02
2022-12-16T13:35:13.420Z,-1.91
2022-12-16T13:40:38.065Z,-1.90
2022-12-16T13:46:01.147Z,-2.04
2022-12-16T13:51:23.467Z,-2.12
2022-12-16T13:56:52.091Z,-1.98
2022-12-16T14:02:15.883Z,-2.08
2022-12-16T14:07:40.829Z,-1.95
2022-12-16T14:13:14.712Z,-2.00
2022-12-16T14:18:46.692Z,-2.01
2022-12-16T14:24:16.159Z,-2.20
2022-12-16T14:29:41.385Z,-2.11
2022-12-16T14:35:02.258Z,-2.24
2022-12-16T14:40:39.256Z,-2.41
2022-12-16T14:46:07.917Z,-2.55
2022-12-16T14:51:50.815Z,-2.59
2022-12-16T14:57:16.414Z,-2.60
2022-12-16T15:02:44.788Z,-2.53
2022-12-16T15:08:05.750Z,-2.54
2022-12-16T15:13:35.416Z,-2.62
2022-12-16T15:18:59.687Z,-2.58
2022-12-16T15:24:31.827Z,-2.56
2022-12-16T15:29:55.581Z,-2.44
2022-12-16T15:35:16.439Z,-2.60
2022-12-16T15:40:44.134Z,-2.67
2022-12-16T15:46:08.979Z,-2.80
2022-12-16T15:51:40.704Z,-2.78
2022-12-16T15:57:03.714Z,-2.98
2022-12-16T16:02:32.745Z,-2.98
2022-12-16T16:07:54.602Z,-2.95
2022-12-16T16:13:17.678Z,-2.89
2022-12-16T16:18:40.019Z,-2.78
2022-12-16T16:24:00.687Z,-2.87
2022-12-16T16:29:22.115Z,-3.06
2022-12-16T16:34:44.010Z,-3.01
2022-12-16T16:40:16.069Z,-3.23
2022-12-16T16:45:36.693Z,-3.20
2022-12-16T16:50:58.887Z,-3.55
2022-12-16T16:56:25.446Z,-3.47
2022-12-16T17:01:46.293Z,-3.37
2022-12-16T17:07:08.580Z,-3.16
2022-12-16T17:12:39.399Z,-3.02
2022-12-16T17:18:00.123Z,-3.19
2022-12-16T17:23:22.417Z,-2.93
2022-12-16T17:28:43.000Z,-3.09
2022-12-16T17:34:03.682Z,-2.97
2022-12-16T17:39:26.181Z,-2.98
2022-12-16T17:44:46.819Z,-3.19
2022-12-16T17:50:07.501Z,-3.30
2022-12-16T17:55:30.108Z,-3.30
2022-12-16T18:00:50.963Z,-3.21
2022-12-16T18:06:15.346Z,-3.02
2022-12-16T18:11:38.931Z,-2.86
2022-12-16T18:17:00.076Z,-3.16
2022-12-16T18:22:21.338Z,-3.42
2022-12-16T18:27:43.708Z,-3.38
2022-12-16T18:33:04.400Z,-3.32
2022-12-16T18:38:25.042Z,-3.15
2022-12-16T18:43:47.476Z,-3.03
2022-12-16T18:49:07.960Z,-3.02
2022-12-16T18:54:28.601Z,-3.05
2022-12-16T18:59:50.885Z,-2.99
2022-12-16T19:05:11.706Z,-2.89
2022-12-16T19:10:32.579Z,-2.88
2022-12-16T19:15:54.890Z,-2.90
2022-12-16T19:21:16.168Z,-2.65
2022-12-16T19:26:36.644Z,-2.77
2022-12-16T19:31:58.911Z,-2.68
2022-12-16T19:37:20.078Z,-2.83
2022-12-16T19:42:52.122Z,-2.64
2022-12-16T19:48:22.903Z,-2.53
2022-12-16T19:53:52.047Z,-2.48
2022-12-16T19:59:12.734Z,-2.54
2022-12-16T20:04:34.826Z,-2.35
2022-12-16T20:09:56.191Z,-2.55
2022-12-16T20:15:16.946Z,-2.65
2022-12-16T20:20:39.427Z,-2.40
2022-12-16T20:25:59.898Z,-2.35
2022-12-16T20:31:21.095Z,-2.43
2022-12-16T20:36:43.257Z,-2.43
2022-12-16T20:42:04.289Z,-2.58
2022-12-16T20:47:36.558Z,-2.51
2022-12-16T20:52:58.938Z,-2.41
2022-12-16T20:58:19.564Z,-2.52
2022-12-16T21:03:40.441Z,-2.37
2022-12-16T21:09:03.166Z,-2.25
2022-12-16T21:14:23.778Z,-2.28
2022-12-16T21:19:44.528Z,-2.47
2022-12-16T21:25:06.632Z,-2.49
2022-12-16T21:30:28.545Z,-2.55
2022-12-16T21:35:51.986Z,-2.42
2022-12-16T21:41:14.264Z,-2.22
2022-12-16T21:46:35.114Z,-2.38
2022-12-16T21:51:56.333Z,-2.28
2022-12-16T21:57:18.491Z,-2.13
2022-12-16T22:02:39.403Z,-2.37
2022-12-16T22:07:59.969Z,-2.44
2022-12-16T22:13:22.386Z,-2.41
2022-12-16T22:18:43.426Z,-2.35
2022-12-16T22:24:04.037Z,-2.39
2022-12-16T22:29:26.319Z,-2.28
2022-12-16T22:34:58.404Z,-2.27
2022-12-16T22:40:19.131Z,-2.35
2022-12-16T22:45:44.529Z,-2.35
2022-12-16T22:51:16.523Z,-2.16
2022-12-16T22:56:37.147Z,-2.25
2022-12-16T23:01:59.316Z,-2.27
2022-12-16T23:07:22.272Z,-2.30
2022-12-16T23:12:43.254Z,-2.19
2022-12-16T23:18:05.273Z,-2.30
2022-12-16T23:23:25.944Z,-2.19
2022-12-16T23:28:46.481Z,-2.04
2022-12-16T23:34:08.875Z,-1.93
2022-12-16T23:39:30.905Z,-2.14
2022-12-16T23:44:56.332Z,-2.09
2022-12-16T23:50:18.693Z,-2.01
2022-12-16T23:55:39.133Z,-2.03
